MSC Maeva — H9TF — position and weather

sailwx.info

Track history (hours):
 
Tides and Currents Weather Stations Pressure Air Temp Water Temp Dewpoint Dewpoint Depression Visibility Wind Speed Wind Dir Waves Ship Positions

MSC Maeva

Last reported at 2017-May-22 09:08 UTC. Time now 2017-May-29 22:54 UTC.
Position N 36°01' E 015°21'.

Type: Ship (hazmat cat A). MMSI: 371851000.

Date/timePositionNaut miles runAvg speedWind from/ knotsBaromVisibWave heightAir tempDewpointWater temp
2017-May-22 09:08N 36°01' E 015°21'315.8
2017-May-22 08:56N 36°02' E 015°17'715.9
2017-May-22 08:30N 36°04' E 015°08'815.9
2017-May-22 08:00N 36°06' E 014°59'1215.5
2017-May-22 07:15N 36°09' E 014°45'415.8
2017-May-22 07:00N 36°10' E 014°41'918.7
2017-May-22 06:30N 36°14' E 014°30'816.0
2017-May-22 06:00N 36°17' E 014°21'815.1
2017-May-22 05:30N 36°20' E 014°12'814.9
2017-May-22 05:00N 36°23' E 014°03'714.9
2017-May-22 04:30N 36°25' E 013°55'714.8
2017-May-22 04:00N 36°28' E 013°46'714.7
2017-May-22 03:30N 36°30' E 013°38'714.7
2017-May-22 03:00N 36°32' E 013°29'714.7
2017-May-22 02:30N 36°35' E 013°21'714.6
2017-May-22 02:00N 36°38' E 013°12'714.8
2017-May-22 01:30N 36°41' E 013°04'25115.7
2017-May-21 09:31N 38°25' E 008°15'116.1
2017-May-21 09:29N 38°25' E 008°14'815.9
2017-May-21 09:00N 38°29' E 008°06'815.8
2017-May-21 08:30N 38°33' E 007°58'815.6
2017-May-21 07:59N 38°37' E 007°49'815.6
2017-May-21 07:30N 38°41' E 007°40'815.8
2017-May-21 07:00N 38°45' E 007°32'815.6
2017-May-21 06:30N 38°50' E 007°23'1015.6
2017-May-21 05:51N 38°55' E 007°12'19615.8
2017-May-20 17:25N 40°38' E 003°35'716.6
2017-May-20 17:00N 40°41' E 003°27'816.7
2017-May-20 16:30N 40°46' E 003°18'816.6
2017-May-20 16:00N 40°50' E 003°08'816.3
2017-May-20 15:30N 40°55' E 002°59'815.8
2017-May-20 15:00N 40°59' E 002°50'815.8
2017-May-20 14:30N 41°03' E 002°41'1515.6
2017-May-20 13:30N 41°11' E 002°24'815.8
2017-May-20 13:00N 41°15' E 002°14'510.8
2017-May-20 12:30N 41°19' E 002°10'1 0.1
2017-May-19 18:03N 41°18' E 002°09'0 0.0
2017-May-19 17:57N 41°18' E 002°09'0 0.0
2017-May-19 17:30N 41°18' E 002°09'0 0.0
2017-May-19 16:57N 41°18' E 002°09'0 0.0
2017-May-19 16:09N 41°18' E 002°09'0 0.0
2017-May-19 15:57N 41°18' E 002°09'0 0.0
2017-May-19 15:09N 41°18' E 002°09'1 0.1
2017-May-18 22:29N 41°19' E 002°10'4 4.9
2017-May-18 21:46N 41°16' E 002°13'3 4.1
2017-May-18 21:04N 41°14' E 002°15'0 1.2
2017-May-18 20:47N 41°15' E 002°15'1 0.9
2017-May-18 20:10N 41°15' E 002°15'2 6.2
2017-May-18 19:51N 41°15' E 002°18'2 5.5
2017-May-18 19:30N 41°16' E 002°20'1 0.8
2017-May-18 18:48N 41°16' E 002°20'0 0.8
2017-May-18 18:31N 41°16' E 002°19'0 0.9
2017-May-18 18:00N 41°16' E 002°19'1 1.0
2017-May-18 17:30N 41°16' E 002°18'0 0.7
2017-May-18 17:01N 41°16' E 002°18'0 0.2
2017-May-18 16:30N 41°16' E 002°18'0 0.2
2017-May-18 16:00N 41°16' E 002°17'3 5.7
2017-May-18 15:30N 41°16' E 002°14'4 7.2
2017-May-18 15:00N 41°14' E 002°10'7 7.2
2017-May-18 14:00N 41°08' E 002°05'4 7.2
2017-May-18 13:30N 41°05' E 002°03'4 7.9
2017-May-18 13:00N 41°01' E 002°01'4 7.9
2017-May-18 12:30N 40°58' E 001°58'4 8.0
2017-May-18 12:00N 40°54' E 001°56'4 8.2
2017-May-18 11:30N 40°50' E 001°53'4 8.4
2017-May-18 11:00N 40°46' E 001°51'4 8.4
2017-May-18 10:30N 40°42' E 001°49'4 8.2
2017-May-18 10:00N 40°39' E 001°46'4 8.6
2017-May-18 09:30N 40°35' E 001°44'4 8.7
2017-May-18 09:00N 40°31' E 001°41'4 8.7
2017-May-18 08:30N 40°28' E 001°38'4 8.6
2017-May-18 08:00N 40°24' E 001°36'4 8.5
2017-May-18 07:30N 40°20' E 001°33'4 8.4
2017-May-18 07:00N 40°16' E 001°30'4 8.4
2017-May-18 06:31N 40°13' E 001°28'4 8.3
2017-May-18 06:00N 40°09' E 001°25'4 8.3
2017-May-18 05:30N 40°05' E 001°23'4 8.4
2017-May-18 05:00N 40°02' E 001°20'4 8.4
2017-May-18 04:30N 39°58' E 001°18'4 8.3
2017-May-18 04:00N 39°54' E 001°16'4 8.3
2017-May-18 03:30N 39°50' E 001°13'4 8.2
2017-May-18 03:00N 39°47' E 001°11'4 8.4
2017-May-18 02:29N 39°43' E 001°08'6 8.6
2017-May-18 01:50N 39°38' E 001°05'7 8.6
2017-May-18 01:03N 39°32' E 001°01'1 8.6
2017-May-18 00:56N 39°31' E 001°00'4 8.5
2017-May-18 00:24N 39°27' E 000°58'5 8.5
2017-May-17 23:48N 39°22' E 000°55'3 8.5
2017-May-17 23:30N 39°20' E 000°53'5 8.5
2017-May-17 22:51N 39°15' E 000°50'3 8.5
2017-May-17 22:30N 39°13' E 000°48'4 8.4
2017-May-17 21:59N 39°09' E 000°46'4 8.2
2017-May-17 21:30N 39°05' E 000°43'4 8.1
2017-May-17 20:59N 39°02' E 000°41'6 8.3
2017-May-17 20:19N 38°57' E 000°38'7 8.4
2017-May-17 19:30N 38°50' E 000°34'9 8.4
2017-May-17 18:25N 38°42' E 000°28'4 8.3
2017-May-17 17:59N 38°39' E 000°26'4 8.1
2017-May-17 17:30N 38°36' E 000°23'11 8.0
2017-May-17 16:10N 38°27' E 000°15'1 8.2
2017-May-17 16:00N 38°26' E 000°15'4 8.3
2017-May-17 15:30N 38°23' E 000°11'13 8.5
2017-May-17 13:58N 38°12' E 000°02'715.6
2017-May-17 13:30N 38°06' W 000°03'1017.9
2017-May-17 12:58N 37°58' W 000°09'918.8
2017-May-17 12:29N 37°50' W 000°16'918.7
2017-May-17 11:59N 37°42' W 000°23'918.5
2017-May-17 11:29N 37°35' W 000°29'918.5
2017-May-17 11:00N 37°29' W 000°37'918.6
2017-May-17 10:30N 37°22' W 000°46'1018.3
2017-May-17 09:59N 37°16' W 000°55'917.9
2017-May-17 09:30N 37°10' W 001°03'21218.1
2017-May-16 21:47N 35°60' W 005°12'518.1
2017-May-16 21:30N 35°58' W 005°18'1019.1
2017-May-16 21:00N 35°56' W 005°30'19317.6
2017-May-16 10:01N 35°33' W 009°26'017.7
2017-May-16 10:00N 35°33' W 009°26'3817.6
2017-May-16 07:51N 35°28' W 010°13'616.8
2017-May-16 07:30N 35°27' W 010°20'916.7
2017-May-16 07:00N 35°26' W 010°30'816.8
2017-May-16 06:30N 35°25' W 010°40'1816.9
2017-May-16 05:26N 35°22' W 011°02'1117.0
2017-May-16 04:45N 35°20' W 011°16'416.8
2017-May-16 04:30N 35°20' W 011°21'816.8
2017-May-16 04:00N 35°19' W 011°31'1216.8
2017-May-16 03:18N 35°17' W 011°46'516.7
2017-May-16 03:00N 35°17' W 011°52'816.6
2017-May-16 02:30N 35°16' W 012°02'2316.4
2017-May-16 01:05N 35°12' W 012°30'116.3
2017-May-16 01:00N 35°12' W 012°32'1416.2
2017-May-16 00:10N 35°10' W 012°48'  
Track history (hours):
 
Tides and Currents Weather Stations Pressure Air Temp Water Temp Dewpoint Dewpoint Depression Visibility Wind Speed Wind Dir Waves Ship Positions

MSC Maeva

Last reported at 2017-May-22 09:08 UTC. Time now 2017-May-29 22:54 UTC.
Position N 36°01' E 015°21'.

Type: Ship (hazmat cat A). MMSI: 371851000.

Date/timePositionNaut miles runAvg speedWind from/ knotsBaromVisibWave heightAir tempDewpointWater temp
2017-May-22 09:08N 36°01' E 015°21'315.8
2017-May-22 08:56N 36°02' E 015°17'715.9
2017-May-22 08:30N 36°04' E 015°08'815.9
2017-May-22 08:00N 36°06' E 014°59'1215.5
2017-May-22 07:15N 36°09' E 014°45'415.8
2017-May-22 07:00N 36°10' E 014°41'918.7
2017-May-22 06:30N 36°14' E 014°30'816.0
2017-May-22 06:00N 36°17' E 014°21'815.1
2017-May-22 05:30N 36°20' E 014°12'814.9
2017-May-22 05:00N 36°23' E 014°03'714.9
2017-May-22 04:30N 36°25' E 013°55'714.8
2017-May-22 04:00N 36°28' E 013°46'714.7
2017-May-22 03:30N 36°30' E 013°38'714.7
2017-May-22 03:00N 36°32' E 013°29'714.7
2017-May-22 02:30N 36°35' E 013°21'714.6
2017-May-22 02:00N 36°38' E 013°12'714.8
2017-May-22 01:30N 36°41' E 013°04'25115.7
2017-May-21 09:31N 38°25' E 008°15'116.1
2017-May-21 09:29N 38°25' E 008°14'815.9
2017-May-21 09:00N 38°29' E 008°06'815.8
2017-May-21 08:30N 38°33' E 007°58'815.6
2017-May-21 07:59N 38°37' E 007°49'815.6
2017-May-21 07:30N 38°41' E 007°40'815.8
2017-May-21 07:00N 38°45' E 007°32'815.6
2017-May-21 06:30N 38°50' E 007°23'1015.6
2017-May-21 05:51N 38°55' E 007°12'19615.8
2017-May-20 17:25N 40°38' E 003°35'716.6
2017-May-20 17:00N 40°41' E 003°27'816.7
2017-May-20 16:30N 40°46' E 003°18'816.6
2017-May-20 16:00N 40°50' E 003°08'816.3
2017-May-20 15:30N 40°55' E 002°59'815.8
2017-May-20 15:00N 40°59' E 002°50'815.8
2017-May-20 14:30N 41°03' E 002°41'1515.6
2017-May-20 13:30N 41°11' E 002°24'815.8
2017-May-20 13:00N 41°15' E 002°14'510.8
2017-May-20 12:30N 41°19' E 002°10'1 0.1
2017-May-19 18:03N 41°18' E 002°09'0 0.0
2017-May-19 17:57N 41°18' E 002°09'0 0.0
2017-May-19 17:30N 41°18' E 002°09'0 0.0
2017-May-19 16:57N 41°18' E 002°09'0 0.0
2017-May-19 16:09N 41°18' E 002°09'0 0.0
2017-May-19 15:57N 41°18' E 002°09'0 0.0
2017-May-19 15:09N 41°18' E 002°09'1 0.1
2017-May-18 22:29N 41°19' E 002°10'4 4.9
2017-May-18 21:46N 41°16' E 002°13'3 4.1
2017-May-18 21:04N 41°14' E 002°15'0 1.2
2017-May-18 20:47N 41°15' E 002°15'1 0.9
2017-May-18 20:10N 41°15' E 002°15'2 6.2
2017-May-18 19:51N 41°15' E 002°18'2 5.5
2017-May-18 19:30N 41°16' E 002°20'1 0.8
2017-May-18 18:48N 41°16' E 002°20'0 0.8
2017-May-18 18:31N 41°16' E 002°19'0 0.9
2017-May-18 18:00N 41°16' E 002°19'1 1.0
2017-May-18 17:30N 41°16' E 002°18'0 0.7
2017-May-18 17:01N 41°16' E 002°18'0 0.2
2017-May-18 16:30N 41°16' E 002°18'0 0.2
2017-May-18 16:00N 41°16' E 002°17'3 5.7
2017-May-18 15:30N 41°16' E 002°14'4 7.2
2017-May-18 15:00N 41°14' E 002°10'7 7.2
2017-May-18 14:00N 41°08' E 002°05'4 7.2
2017-May-18 13:30N 41°05' E 002°03'4 7.9
2017-May-18 13:00N 41°01' E 002°01'4 7.9
2017-May-18 12:30N 40°58' E 001°58'4 8.0
2017-May-18 12:00N 40°54' E 001°56'4 8.2
2017-May-18 11:30N 40°50' E 001°53'4 8.4
2017-May-18 11:00N 40°46' E 001°51'4 8.4
2017-May-18 10:30N 40°42' E 001°49'4 8.2
2017-May-18 10:00N 40°39' E 001°46'4 8.6
2017-May-18 09:30N 40°35' E 001°44'4 8.7
2017-May-18 09:00N 40°31' E 001°41'4 8.7
2017-May-18 08:30N 40°28' E 001°38'4 8.6
2017-May-18 08:00N 40°24' E 001°36'4 8.5
2017-May-18 07:30N 40°20' E 001°33'4 8.4
2017-May-18 07:00N 40°16' E 001°30'4 8.4
2017-May-18 06:31N 40°13' E 001°28'4 8.3
2017-May-18 06:00N 40°09' E 001°25'4 8.3
2017-May-18 05:30N 40°05' E 001°23'4 8.4
2017-May-18 05:00N 40°02' E 001°20'4 8.4
2017-May-18 04:30N 39°58' E 001°18'4 8.3
2017-May-18 04:00N 39°54' E 001°16'4 8.3
2017-May-18 03:30N 39°50' E 001°13'4 8.2
2017-May-18 03:00N 39°47' E 001°11'4 8.4
2017-May-18 02:29N 39°43' E 001°08'6 8.6
2017-May-18 01:50N 39°38' E 001°05'7 8.6
2017-May-18 01:03N 39°32' E 001°01'1 8.6
2017-May-18 00:56N 39°31' E 001°00'4 8.5
2017-May-18 00:24N 39°27' E 000°58'5 8.5
2017-May-17 23:48N 39°22' E 000°55'3 8.5
2017-May-17 23:30N 39°20' E 000°53'5 8.5
2017-May-17 22:51N 39°15' E 000°50'3 8.5
2017-May-17 22:30N 39°13' E 000°48'4 8.4
2017-May-17 21:59N 39°09' E 000°46'4 8.2
2017-May-17 21:30N 39°05' E 000°43'4 8.1
2017-May-17 20:59N 39°02' E 000°41'6 8.3
2017-May-17 20:19N 38°57' E 000°38'7 8.4
2017-May-17 19:30N 38°50' E 000°34'9 8.4
2017-May-17 18:25N 38°42' E 000°28'4 8.3
2017-May-17 17:59N 38°39' E 000°26'4 8.1
2017-May-17 17:30N 38°36' E 000°23'11 8.0
2017-May-17 16:10N 38°27' E 000°15'1 8.2
2017-May-17 16:00N 38°26' E 000°15'4 8.3
2017-May-17 15:30N 38°23' E 000°11'13 8.5
2017-May-17 13:58N 38°12' E 000°02'715.6
2017-May-17 13:30N 38°06' W 000°03'1017.9
2017-May-17 12:58N 37°58' W 000°09'918.8
2017-May-17 12:29N 37°50' W 000°16'918.7
2017-May-17 11:59N 37°42' W 000°23'918.5
2017-May-17 11:29N 37°35' W 000°29'918.5
2017-May-17 11:00N 37°29' W 000°37'918.6
2017-May-17 10:30N 37°22' W 000°46'1018.3
2017-May-17 09:59N 37°16' W 000°55'917.9
2017-May-17 09:30N 37°10' W 001°03'21218.1
2017-May-16 21:47N 35°60' W 005°12'518.1
2017-May-16 21:30N 35°58' W 005°18'1019.1
2017-May-16 21:00N 35°56' W 005°30'19317.6
2017-May-16 10:01N 35°33' W 009°26'017.7
2017-May-16 10:00N 35°33' W 009°26'3817.6
2017-May-16 07:51N 35°28' W 010°13'616.8
2017-May-16 07:30N 35°27' W 010°20'916.7
2017-May-16 07:00N 35°26' W 010°30'816.8
2017-May-16 06:30N 35°25' W 010°40'1816.9
2017-May-16 05:26N 35°22' W 011°02'1117.0
2017-May-16 04:45N 35°20' W 011°16'416.8
2017-May-16 04:30N 35°20' W 011°21'816.8
2017-May-16 04:00N 35°19' W 011°31'1216.8
2017-May-16 03:18N 35°17' W 011°46'516.7
2017-May-16 03:00N 35°17' W 011°52'816.6
2017-May-16 02:30N 35°16' W 012°02'2316.4
2017-May-16 01:05N 35°12' W 012°30'116.3
2017-May-16 01:00N 35°12' W 012°32'1416.2
2017-May-16 00:10N 35°10' W 012°48'  

Dump ship's entire track history